sensor_id;sensor_type;location;lat;lon;timestamp;P1;durP1;ratioP1;P2;durP2;ratioP2
60588;SDS011;46421;48.610;9.334;2023-06-04T00:00:23;8.93;;;3.83;;
60588;SDS011;46421;48.610;9.334;2023-06-04T00:02:48;8.60;;;4.30;;
60588;SDS011;46421;48.610;9.334;2023-06-04T00:05:13;8.53;;;3.93;;
60588;SDS011;46421;48.610;9.334;2023-06-04T00:07:38;10.43;;;4.57;;
60588;SDS011;46421;48.610;9.334;2023-06-04T00:10:04;8.47;;;4.20;;
60588;SDS011;46421;48.610;9.334;2023-06-04T00:12:29;9.23;;;3.88;;
60588;SDS011;46421;48.610;9.334;2023-06-04T00:14:55;9.73;;;4.07;;
60588;SDS011;46421;48.610;9.334;2023-06-04T00:17:20;11.67;;;4.43;;
60588;SDS011;46421;48.610;9.334;2023-06-04T00:19:45;8.97;;;3.90;;
60588;SDS011;46421;48.610;9.334;2023-06-04T00:22:10;8.30;;;4.07;;
60588;SDS011;46421;48.610;9.334;2023-06-04T00:24:37;9.18;;;4.15;;
60588;SDS011;46421;48.610;9.334;2023-06-04T00:27:03;9.95;;;3.72;;
60588;SDS011;46421;48.610;9.334;2023-06-04T00:29:28;8.27;;;4.47;;
60588;SDS011;46421;48.610;9.334;2023-06-04T00:31:54;8.93;;;4.13;;
60588;SDS011;46421;48.610;9.334;2023-06-04T00:34:19;9.17;;;4.37;;
60588;SDS011;46421;48.610;9.334;2023-06-04T00:36:45;9.70;;;4.32;;
60588;SDS011;46421;48.610;9.334;2023-06-04T00:39:10;8.80;;;4.00;;
60588;SDS011;46421;48.610;9.334;2023-06-04T00:41:36;7.23;;;3.70;;
60588;SDS011;46421;48.610;9.334;2023-06-04T00:44:01;9.30;;;3.97;;
60588;SDS011;46421;48.610;9.334;2023-06-04T00:46:26;10.47;;;4.70;;
60588;SDS011;46421;48.610;9.334;2023-06-04T00:48:52;10.57;;;4.30;;
60588;SDS011;46421;48.610;9.334;2023-06-04T00:51:18;11.73;;;4.28;;
60588;SDS011;46421;48.610;9.334;2023-06-04T00:53:43;10.02;;;4.47;;
60588;SDS011;46421;48.610;9.334;2023-06-04T00:56:09;9.13;;;3.88;;
60588;SDS011;46421;48.610;9.334;2023-06-04T00:58:37;9.73;;;3.80;;
60588;SDS011;46421;48.610;9.334;2023-06-04T01:01:04;8.77;;;4.53;;
60588;SDS011;46421;48.610;9.334;2023-06-04T01:03:29;7.32;;;3.45;;
60588;SDS011;46421;48.610;9.334;2023-06-04T01:08:22;9.55;;;4.13;;
60588;SDS011;46421;48.610;9.334;2023-06-04T01:10:52;11.25;;;4.07;;
60588;SDS011;46421;48.610;9.334;2023-06-04T01:13:17;10.15;;;4.13;;
60588;SDS011;46421;48.610;9.334;2023-06-04T01:15:42;9.27;;;3.97;;
60588;SDS011;46421;48.610;9.334;2023-06-04T01:18:07;9.10;;;4.33;;
60588;SDS011;46421;48.610;9.334;2023-06-04T01:20:38;9.02;;;4.03;;
60588;SDS011;46421;48.610;9.334;2023-06-04T01:25:48;11.90;;;4.43;;
60588;SDS011;46421;48.610;9.334;2023-06-04T01:28:14;8.77;;;4.13;;
60588;SDS011;46421;48.610;9.334;2023-06-04T01:30:42;11.27;;;4.18;;
60588;SDS011;46421;48.610;9.334;2023-06-04T01:33:09;10.25;;;4.78;;
60588;SDS011;46421;48.610;9.334;2023-06-04T01:35:36;9.45;;;4.30;;
60588;SDS011;46421;48.610;9.334;2023-06-04T01:38:01;9.45;;;4.32;;
60588;SDS011;46421;48.610;9.334;2023-06-04T01:40:26;9.47;;;4.50;;
60588;SDS011;46421;48.610;9.334;2023-06-04T01:42:52;8.23;;;3.95;;
60588;SDS011;46421;48.610;9.334;2023-06-04T01:45:17;8.30;;;3.97;;
60588;SDS011;46421;48.610;9.334;2023-06-04T01:47:42;8.63;;;3.83;;
60588;SDS011;46421;48.610;9.334;2023-06-04T01:50:08;9.88;;;4.55;;
60588;SDS011;46421;48.610;9.334;2023-06-04T01:52:37;9.57;;;4.50;;
60588;SDS011;46421;48.610;9.334;2023-06-04T01:55:03;9.45;;;4.13;;
60588;SDS011;46421;48.610;9.334;2023-06-04T01:57:29;7.60;;;3.85;;
60588;SDS011;46421;48.610;9.334;2023-06-04T01:59:55;9.38;;;4.05;;
60588;SDS011;46421;48.610;9.334;2023-06-04T02:02:20;8.40;;;4.28;;
60588;SDS011;46421;48.610;9.334;2023-06-04T02:04:45;9.70;;;4.60;;
60588;SDS011;46421;48.610;9.334;2023-06-04T02:07:11;9.93;;;4.18;;
60588;SDS011;46421;48.610;9.334;2023-06-04T02:09:42;9.32;;;4.75;;
60588;SDS011;46421;48.610;9.334;2023-06-04T02:12:08;9.87;;;4.33;;
60588;SDS011;46421;48.610;9.334;2023-06-04T02:14:33;10.53;;;4.27;;
60588;SDS011;46421;48.610;9.334;2023-06-04T02:16:58;8.07;;;3.80;;
60588;SDS011;46421;48.610;9.334;2023-06-04T02:19:24;9.07;;;4.13;;
60588;SDS011;46421;48.610;9.334;2023-06-04T02:21:51;10.70;;;4.90;;
60588;SDS011;46421;48.610;9.334;2023-06-04T02:24:16;8.15;;;4.15;;
60588;SDS011;46421;48.610;9.334;2023-06-04T02:26:41;9.07;;;3.97;;
60588;SDS011;46421;48.610;9.334;2023-06-04T02:29:06;9.03;;;3.93;;
60588;SDS011;46421;48.610;9.334;2023-06-04T02:31:31;10.70;;;4.47;;
60588;SDS011;46421;48.610;9.334;2023-06-04T02:33:57;9.43;;;4.23;;
60588;SDS011;46421;48.610;9.334;2023-06-04T02:36:22;7.67;;;3.97;;
60588;SDS011;46421;48.610;9.334;2023-06-04T02:38:47;10.13;;;4.50;;
60588;SDS011;46421;48.610;9.334;2023-06-04T02:41:12;8.73;;;4.20;;
60588;SDS011;46421;48.610;9.334;2023-06-04T02:43:38;7.97;;;3.77;;
60588;SDS011;46421;48.610;9.334;2023-06-04T02:46:03;7.50;;;4.07;;
60588;SDS011;46421;48.610;9.334;2023-06-04T02:48:28;11.93;;;5.03;;
60588;SDS011;46421;48.610;9.334;2023-06-04T02:50:53;7.40;;;3.53;;
60588;SDS011;46421;48.610;9.334;2023-06-04T02:53:18;10.17;;;4.37;;
60588;SDS011;46421;48.610;9.334;2023-06-04T02:55:44;8.83;;;4.20;;
60588;SDS011;46421;48.610;9.334;2023-06-04T02:58:09;8.47;;;3.70;;
60588;SDS011;46421;48.610;9.334;2023-06-04T03:00:34;7.07;;;3.72;;
60588;SDS011;46421;48.610;9.334;2023-06-04T03:02:59;8.57;;;4.27;;
60588;SDS011;46421;48.610;9.334;2023-06-04T03:05:26;9.45;;;4.13;;
60588;SDS011;46421;48.610;9.334;2023-06-04T03:07:52;7.82;;;3.63;;
60588;SDS011;46421;48.610;9.334;2023-06-04T03:10:17;8.50;;;3.60;;
60588;SDS011;46421;48.610;9.334;2023-06-04T03:12:42;9.00;;;3.83;;
60588;SDS011;46421;48.610;9.334;2023-06-04T03:15:08;10.43;;;4.28;;
60588;SDS011;46421;48.610;9.334;2023-06-04T03:17:34;9.13;;;3.90;;
60588;SDS011;46421;48.610;9.334;2023-06-04T03:19:59;8.93;;;3.70;;
60588;SDS011;46421;48.610;9.334;2023-06-04T03:22:24;10.10;;;4.13;;
60588;SDS011;46421;48.610;9.334;2023-06-04T03:24:50;10.77;;;3.25;;
60588;SDS011;46421;48.610;9.334;2023-06-04T03:27:17;7.45;;;3.55;;
60588;SDS011;46421;48.610;9.334;2023-06-04T03:29:43;8.48;;;4.38;;
60588;SDS011;46421;48.610;9.334;2023-06-04T03:32:08;8.17;;;3.73;;
60588;SDS011;46421;48.610;9.334;2023-06-04T03:34:33;8.90;;;3.93;;
60588;SDS011;46421;48.610;9.334;2023-06-04T03:36:58;10.87;;;4.23;;
60588;SDS011;46421;48.610;9.334;2023-06-04T03:39:24;7.43;;;3.83;;
60588;SDS011;46421;48.610;9.334;2023-06-04T03:41:49;11.47;;;4.03;;
60588;SDS011;46421;48.610;9.334;2023-06-04T03:44:18;6.73;;;3.60;;
60588;SDS011;46421;48.610;9.334;2023-06-04T03:46:43;9.25;;;4.10;;
60588;SDS011;46421;48.610;9.334;2023-06-04T03:49:09;7.30;;;3.38;;
60588;SDS011;46421;48.610;9.334;2023-06-04T03:51:36;9.32;;;3.72;;
60588;SDS011;46421;48.610;9.334;2023-06-04T03:54:01;8.15;;;3.67;;
60588;SDS011;46421;48.610;9.334;2023-06-04T03:56:27;8.07;;;3.83;;
60588;SDS011;46421;48.610;9.334;2023-06-04T03:58:52;8.43;;;3.97;;
60588;SDS011;46421;48.610;9.334;2023-06-04T04:01:17;7.82;;;3.42;;
60588;SDS011;46421;48.610;9.334;2023-06-04T04:03:43;8.65;;;3.33;;
60588;SDS011;46421;48.610;9.334;2023-06-04T04:06:09;9.57;;;4.25;;
60588;SDS011;46421;48.610;9.334;2023-06-04T04:08:35;7.60;;;3.17;;
60588;SDS011;46421;48.610;9.334;2023-06-04T04:11:00;8.52;;;3.88;;
60588;SDS011;46421;48.610;9.334;2023-06-04T04:13:26;7.80;;;3.60;;
60588;SDS011;46421;48.610;9.334;2023-06-04T04:15:51;10.07;;;3.43;;
60588;SDS011;46421;48.610;9.334;2023-06-04T04:18:20;8.93;;;3.42;;
60588;SDS011;46421;48.610;9.334;2023-06-04T04:20:45;7.90;;;3.72;;
60588;SDS011;46421;48.610;9.334;2023-06-04T04:23:11;8.20;;;4.00;;
60588;SDS011;46421;48.610;9.334;2023-06-04T04:25:37;8.07;;;3.60;;
60588;SDS011;46421;48.610;9.334;2023-06-04T04:28:03;7.38;;;3.17;;
60588;SDS011;46421;48.610;9.334;2023-06-04T04:30:32;8.10;;;3.50;;
60588;SDS011;46421;48.610;9.334;2023-06-04T04:32:59;9.35;;;3.90;;
60588;SDS011;46421;48.610;9.334;2023-06-04T04:35:24;9.55;;;3.67;;
60588;SDS011;46421;48.610;9.334;2023-06-04T04:37:49;7.83;;;3.43;;
60588;SDS011;46421;48.610;9.334;2023-06-04T04:40:15;8.53;;;3.60;;
60588;SDS011;46421;48.610;9.334;2023-06-04T04:42:40;8.70;;;3.57;;
60588;SDS011;46421;48.610;9.334;2023-06-04T04:45:06;8.23;;;3.53;;
60588;SDS011;46421;48.610;9.334;2023-06-04T04:47:32;8.38;;;4.45;;
60588;SDS011;46421;48.610;9.334;2023-06-04T04:49:57;8.27;;;3.88;;
60588;SDS011;46421;48.610;9.334;2023-06-04T04:52:23;6.82;;;3.53;;
60588;SDS011;46421;48.610;9.334;2023-06-04T04:54:48;10.33;;;4.30;;
60588;SDS011;46421;48.610;9.334;2023-06-04T04:57:13;8.50;;;4.50;;
60588;SDS011;46421;48.610;9.334;2023-06-04T04:59:38;9.20;;;4.07;;
60588;SDS011;46421;48.610;9.334;2023-06-04T05:02:04;6.93;;;3.80;;
60588;SDS011;46421;48.610;9.334;2023-06-04T05:04:29;10.30;;;4.20;;
60588;SDS011;46421;48.610;9.334;2023-06-04T05:06:54;7.97;;;4.10;;
60588;SDS011;46421;48.610;9.334;2023-06-04T05:09:19;9.53;;;3.83;;
60588;SDS011;46421;48.610;9.334;2023-06-04T05:11:45;8.00;;;3.65;;
60588;SDS011;46421;48.610;9.334;2023-06-04T05:14:10;8.63;;;4.43;;
60588;SDS011;46421;48.610;9.334;2023-06-04T05:16:36;9.70;;;4.20;;
60588;SDS011;46421;48.610;9.334;2023-06-04T05:19:02;7.78;;;4.30;;
60588;SDS011;46421;48.610;9.334;2023-06-04T05:21:28;7.45;;;3.78;;
60588;SDS011;46421;48.610;9.334;2023-06-04T05:23:56;8.82;;;3.85;;
60588;SDS011;46421;48.610;9.334;2023-06-04T05:26:21;9.23;;;4.47;;
60588;SDS011;46421;48.610;9.334;2023-06-04T05:28:48;9.30;;;4.30;;
60588;SDS011;46421;48.610;9.334;2023-06-04T05:31:14;8.00;;;4.43;;
60588;SDS011;46421;48.610;9.334;2023-06-04T05:36:05;9.95;;;3.55;;
60588;SDS011;46421;48.610;9.334;2023-06-04T05:38:31;7.70;;;3.80;;
60588;SDS011;46421;48.610;9.334;2023-06-04T05:40:56;8.80;;;3.90;;
60588;SDS011;46421;48.610;9.334;2023-06-04T05:43:22;8.23;;;3.37;;
60588;SDS011;46421;48.610;9.334;2023-06-04T05:45:47;8.02;;;3.70;;
60588;SDS011;46421;48.610;9.334;2023-06-04T05:48:12;7.05;;;3.47;;
60588;SDS011;46421;48.610;9.334;2023-06-04T05:50:38;6.40;;;3.17;;
60588;SDS011;46421;48.610;9.334;2023-06-04T05:53:03;8.10;;;3.43;;
60588;SDS011;46421;48.610;9.334;2023-06-04T05:55:28;6.28;;;3.08;;
60588;SDS011;46421;48.610;9.334;2023-06-04T05:57:54;5.15;;;2.63;;
60588;SDS011;46421;48.610;9.334;2023-06-04T06:00:20;6.85;;;3.40;;
60588;SDS011;46421;48.610;9.334;2023-06-04T06:02:45;6.93;;;3.33;;
60588;SDS011;46421;48.610;9.334;2023-06-04T06:05:14;6.78;;;2.78;;
60588;SDS011;46421;48.610;9.334;2023-06-04T06:07:39;8.50;;;2.70;;
60588;SDS011;46421;48.610;9.334;2023-06-04T06:10:04;6.13;;;2.47;;
60588;SDS011;46421;48.610;9.334;2023-06-04T06:12:30;6.07;;;2.72;;
60588;SDS011;46421;48.610;9.334;2023-06-04T06:14:55;6.88;;;2.58;;
60588;SDS011;46421;48.610;9.334;2023-06-04T06:17:21;4.78;;;2.33;;
60588;SDS011;46421;48.610;9.334;2023-06-04T06:19:46;4.93;;;2.33;;
60588;SDS011;46421;48.610;9.334;2023-06-04T06:22:11;5.37;;;2.43;;
60588;SDS011;46421;48.610;9.334;2023-06-04T06:24:37;5.53;;;2.35;;
60588;SDS011;46421;48.610;9.334;2023-06-04T06:27:02;4.50;;;2.38;;
60588;SDS011;46421;48.610;9.334;2023-06-04T06:29:28;5.57;;;2.40;;
60588;SDS011;46421;48.610;9.334;2023-06-04T06:31:53;6.50;;;2.60;;
60588;SDS011;46421;48.610;9.334;2023-06-04T06:34:18;5.83;;;2.10;;
60588;SDS011;46421;48.610;9.334;2023-06-04T06:36:43;5.40;;;2.37;;
60588;SDS011;46421;48.610;9.334;2023-06-04T06:39:09;6.85;;;2.58;;
60588;SDS011;46421;48.610;9.334;2023-06-04T06:41:35;4.28;;;2.05;;
60588;SDS011;46421;48.610;9.334;2023-06-04T06:44:00;6.67;;;2.23;;
60588;SDS011;46421;48.610;9.334;2023-06-04T06:46:25;6.70;;;2.20;;
60588;SDS011;46421;48.610;9.334;2023-06-04T06:48:51;6.27;;;2.30;;
60588;SDS011;46421;48.610;9.334;2023-06-04T06:51:16;4.17;;;1.73;;
60588;SDS011;46421;48.610;9.334;2023-06-04T06:53:42;6.13;;;2.30;;
60588;SDS011;46421;48.610;9.334;2023-06-04T06:56:07;5.10;;;1.83;;
60588;SDS011;46421;48.610;9.334;2023-06-04T06:58:32;5.28;;;2.17;;
60588;SDS011;46421;48.610;9.334;2023-06-04T07:00:58;4.40;;;1.93;;
60588;SDS011;46421;48.610;9.334;2023-06-04T07:03:23;4.57;;;2.03;;
60588;SDS011;46421;48.610;9.334;2023-06-04T07:05:48;4.97;;;1.80;;
60588;SDS011;46421;48.610;9.334;2023-06-04T07:08:13;3.40;;;1.50;;
60588;SDS011;46421;48.610;9.334;2023-06-04T07:10:39;4.55;;;1.67;;
60588;SDS011;46421;48.610;9.334;2023-06-04T07:13:04;4.37;;;1.70;;
60588;SDS011;46421;48.610;9.334;2023-06-04T07:15:29;4.07;;;1.63;;
60588;SDS011;46421;48.610;9.334;2023-06-04T07:17:54;4.03;;;1.57;;
60588;SDS011;46421;48.610;9.334;2023-06-04T07:20:20;4.63;;;1.57;;
60588;SDS011;46421;48.610;9.334;2023-06-04T07:22:45;3.97;;;2.00;;
60588;SDS011;46421;48.610;9.334;2023-06-04T07:25:10;4.60;;;1.97;;
60588;SDS011;46421;48.610;9.334;2023-06-04T07:27:36;4.93;;;1.85;;
60588;SDS011;46421;48.610;9.334;2023-06-04T07:30:01;4.43;;;2.20;;
60588;SDS011;46421;48.610;9.334;2023-06-04T07:32:27;5.17;;;2.33;;
60588;SDS011;46421;48.610;9.334;2023-06-04T07:34:52;5.63;;;2.10;;
60588;SDS011;46421;48.610;9.334;2023-06-04T07:37:17;3.77;;;1.73;;
60588;SDS011;46421;48.610;9.334;2023-06-04T07:39:43;4.00;;;1.57;;
60588;SDS011;46421;48.610;9.334;2023-06-04T07:42:08;6.70;;;2.20;;
60588;SDS011;46421;48.610;9.334;2023-06-04T07:44:33;3.83;;;1.70;;
60588;SDS011;46421;48.610;9.334;2023-06-04T07:46:59;3.33;;;1.60;;
60588;SDS011;46421;48.610;9.334;2023-06-04T07:49:24;4.17;;;1.80;;
60588;SDS011;46421;48.610;9.334;2023-06-04T07:51:49;5.43;;;2.53;;
60588;SDS011;46421;48.610;9.334;2023-06-04T07:54:15;6.55;;;2.30;;
60588;SDS011;46421;48.610;9.334;2023-06-04T07:56:41;5.43;;;2.03;;
60588;SDS011;46421;48.610;9.334;2023-06-04T07:59:06;5.43;;;2.03;;
60588;SDS011;46421;48.610;9.334;2023-06-04T08:01:32;3.40;;;1.93;;
60588;SDS011;46421;48.610;9.334;2023-06-04T08:03:57;5.47;;;2.00;;
60588;SDS011;46421;48.610;9.334;2023-06-04T08:06:24;3.88;;;1.77;;
60588;SDS011;46421;48.610;9.334;2023-06-04T08:08:49;3.75;;;1.90;;
60588;SDS011;46421;48.610;9.334;2023-06-04T08:11:15;5.43;;;2.00;;
60588;SDS011;46421;48.610;9.334;2023-06-04T08:13:40;3.97;;;1.60;;
60588;SDS011;46421;48.610;9.334;2023-06-04T08:18:31;4.10;;;1.60;;
60588;SDS011;46421;48.610;9.334;2023-06-04T08:20:56;4.50;;;1.83;;
60588;SDS011;46421;48.610;9.334;2023-06-04T08:23:22;4.43;;;1.95;;
60588;SDS011;46421;48.610;9.334;2023-06-04T08:25:47;4.80;;;2.60;;
60588;SDS011;46421;48.610;9.334;2023-06-04T08:28:13;4.27;;;1.97;;
60588;SDS011;46421;48.610;9.334;2023-06-04T08:30:39;4.18;;;1.65;;
60588;SDS011;46421;48.610;9.334;2023-06-04T08:33:04;5.63;;;2.07;;
60588;SDS011;46421;48.610;9.334;2023-06-04T08:37:55;4.70;;;2.00;;
60588;SDS011;46421;48.610;9.334;2023-06-04T08:40:20;4.43;;;1.70;;
60588;SDS011;46421;48.610;9.334;2023-06-04T08:42:47;4.43;;;1.73;;
60588;SDS011;46421;48.610;9.334;2023-06-04T08:45:13;5.22;;;2.20;;
60588;SDS011;46421;48.610;9.334;2023-06-04T08:47:43;5.07;;;2.08;;
60588;SDS011;46421;48.610;9.334;2023-06-04T08:50:10;6.00;;;2.22;;
60588;SDS011;46421;48.610;9.334;2023-06-04T08:52:37;5.85;;;2.40;;
60588;SDS011;46421;48.610;9.334;2023-06-04T08:55:02;5.07;;;2.00;;
60588;SDS011;46421;48.610;9.334;2023-06-04T08:57:32;3.50;;;1.92;;
60588;SDS011;46421;48.610;9.334;2023-06-04T08:59:57;5.65;;;1.90;;
60588;SDS011;46421;48.610;9.334;2023-06-04T09:04:48;3.80;;;2.20;;
60588;SDS011;46421;48.610;9.334;2023-06-04T09:07:14;3.47;;;1.60;;
60588;SDS011;46421;48.610;9.334;2023-06-04T09:09:40;4.13;;;1.83;;
60588;SDS011;46421;48.610;9.334;2023-06-04T09:12:07;7.97;;;2.00;;
60588;SDS011;46421;48.610;9.334;2023-06-04T09:14:34;4.00;;;1.95;;
60588;SDS011;46421;48.610;9.334;2023-06-04T09:16:59;4.93;;;2.07;;
60588;SDS011;46421;48.610;9.334;2023-06-04T09:24:15;4.72;;;2.20;;
60588;SDS011;46421;48.610;9.334;2023-06-04T09:29:05;6.50;;;2.35;;
60588;SDS011;46421;48.610;9.334;2023-06-04T09:34:02;4.72;;;2.20;;
60588;SDS011;46421;48.610;9.334;2023-06-04T09:36:31;5.20;;;2.40;;
60588;SDS011;46421;48.610;9.334;2023-06-04T09:38:56;4.10;;;2.22;;
60588;SDS011;46421;48.610;9.334;2023-06-04T09:43:49;3.70;;;1.90;;
60588;SDS011;46421;48.610;9.334;2023-06-04T09:46:15;4.60;;;2.28;;
60588;SDS011;46421;48.610;9.334;2023-06-04T09:48:41;4.55;;;2.33;;
60588;SDS011;46421;48.610;9.334;2023-06-04T09:53:32;4.13;;;2.27;;
60588;SDS011;46421;48.610;9.334;2023-06-04T09:56:01;4.88;;;2.63;;
60588;SDS011;46421;48.610;9.334;2023-06-04T09:58:27;3.92;;;2.08;;
60588;SDS011;46421;48.610;9.334;2023-06-04T10:03:17;5.25;;;3.08;;
60588;SDS011;46421;48.610;9.334;2023-06-04T10:05:48;4.70;;;2.80;;
60588;SDS011;46421;48.610;9.334;2023-06-04T10:10:39;4.72;;;2.88;;
60588;SDS011;46421;48.610;9.334;2023-06-04T10:15:29;4.20;;;2.45;;
60588;SDS011;46421;48.610;9.334;2023-06-04T10:17:57;5.88;;;3.13;;
60588;SDS011;46421;48.610;9.334;2023-06-04T10:20:22;6.15;;;2.58;;
60588;SDS011;46421;48.610;9.334;2023-06-04T10:25:13;5.05;;;2.90;;
60588;SDS011;46421;48.610;9.334;2023-06-04T10:30:04;6.43;;;3.73;;
60588;SDS011;46421;48.610;9.334;2023-06-04T10:34:54;7.15;;;4.20;;
60588;SDS011;46421;48.610;9.334;2023-06-04T10:37:22;6.00;;;3.67;;
60588;SDS011;46421;48.610;9.334;2023-06-04T10:39:54;6.60;;;3.75;;
60588;SDS011;46421;48.610;9.334;2023-06-04T10:42:20;5.20;;;3.60;;
60588;SDS011;46421;48.610;9.334;2023-06-04T10:44:50;6.05;;;3.40;;
60588;SDS011;46421;48.610;9.334;2023-06-04T10:47:25;4.97;;;3.30;;
60588;SDS011;46421;48.610;9.334;2023-06-04T10:49:51;5.97;;;3.47;;
60588;SDS011;46421;48.610;9.334;2023-06-04T10:52:16;6.45;;;3.40;;
60588;SDS011;46421;48.610;9.334;2023-06-04T10:54:42;6.43;;;3.95;;
60588;SDS011;46421;48.610;9.334;2023-06-04T10:57:14;6.17;;;3.23;;
60588;SDS011;46421;48.610;9.334;2023-06-04T10:59:40;6.50;;;3.65;;
60588;SDS011;46421;48.610;9.334;2023-06-04T11:04:31;4.57;;;3.20;;
60588;SDS011;46421;48.610;9.334;2023-06-04T11:07:02;5.75;;;3.20;;
60588;SDS011;46421;48.610;9.334;2023-06-04T11:09:30;4.80;;;3.40;;
60588;SDS011;46421;48.610;9.334;2023-06-04T11:11:56;5.65;;;2.83;;
60588;SDS011;46421;48.610;9.334;2023-06-04T11:16:47;5.15;;;2.53;;
60588;SDS011;46421;48.610;9.334;2023-06-04T11:19:12;5.63;;;2.80;;
60588;SDS011;46421;48.610;9.334;2023-06-04T11:21:37;5.80;;;2.95;;
60588;SDS011;46421;48.610;9.334;2023-06-04T11:24:03;6.85;;;3.60;;
60588;SDS011;46421;48.610;9.334;2023-06-04T11:26:29;5.35;;;3.45;;
60588;SDS011;46421;48.610;9.334;2023-06-04T11:31:20;6.32;;;2.83;;
60588;SDS011;46421;48.610;9.334;2023-06-04T11:36:27;5.57;;;3.30;;
60588;SDS011;46421;48.610;9.334;2023-06-04T11:38:54;7.07;;;3.53;;
60588;SDS011;46421;48.610;9.334;2023-06-04T11:41:20;5.97;;;3.80;;
60588;SDS011;46421;48.610;9.334;2023-06-04T11:46:11;6.18;;;4.00;;
60588;SDS011;46421;48.610;9.334;2023-06-04T11:53:28;5.38;;;3.05;;
60588;SDS011;46421;48.610;9.334;2023-06-04T11:55:53;5.75;;;3.35;;
60588;SDS011;46421;48.610;9.334;2023-06-04T12:00:43;6.77;;;3.50;;
60588;SDS011;46421;48.610;9.334;2023-06-04T12:05:34;5.93;;;3.03;;
60588;SDS011;46421;48.610;9.334;2023-06-04T12:08:09;7.68;;;3.50;;
60588;SDS011;46421;48.610;9.334;2023-06-04T12:10:41;7.07;;;3.58;;
60588;SDS011;46421;48.610;9.334;2023-06-04T12:13:06;5.55;;;3.50;;
60588;SDS011;46421;48.610;9.334;2023-06-04T12:17:57;5.70;;;3.37;;
60588;SDS011;46421;48.610;9.334;2023-06-04T12:20:35;6.78;;;3.95;;
60588;SDS011;46421;48.610;9.334;2023-06-04T12:23:01;5.85;;;3.63;;
60588;SDS011;46421;48.610;9.334;2023-06-04T12:27:52;6.47;;;2.85;;
60588;SDS011;46421;48.610;9.334;2023-06-04T12:32:43;5.70;;;2.70;;
60588;SDS011;46421;48.610;9.334;2023-06-04T12:35:09;4.80;;;3.00;;
60588;SDS011;46421;48.610;9.334;2023-06-04T12:37:34;6.38;;;3.60;;
60588;SDS011;46421;48.610;9.334;2023-06-04T12:39:59;6.20;;;3.77;;
60588;SDS011;46421;48.610;9.334;2023-06-04T12:44:50;6.00;;;3.07;;
60588;SDS011;46421;48.610;9.334;2023-06-04T12:49:42;6.03;;;3.55;;
60588;SDS011;46421;48.610;9.334;2023-06-04T12:54:32;5.90;;;3.25;;
60588;SDS011;46421;48.610;9.334;2023-06-04T12:56:57;5.27;;;3.40;;
60588;SDS011;46421;48.610;9.334;2023-06-04T12:59:24;5.40;;;3.28;;
60588;SDS011;46421;48.610;9.334;2023-06-04T13:01:50;7.13;;;3.50;;
60588;SDS011;46421;48.610;9.334;2023-06-04T13:06:40;5.38;;;3.25;;
60588;SDS011;46421;48.610;9.334;2023-06-04T13:11:43;5.38;;;3.50;;
60588;SDS011;46421;48.610;9.334;2023-06-04T13:14:08;5.68;;;3.15;;
60588;SDS011;46421;48.610;9.334;2023-06-04T13:18:59;5.53;;;3.47;;
60588;SDS011;46421;48.610;9.334;2023-06-04T13:23:49;5.97;;;3.40;;
60588;SDS011;46421;48.610;9.334;2023-06-04T13:28:40;5.43;;;3.57;;
60588;SDS011;46421;48.610;9.334;2023-06-04T13:31:05;5.67;;;3.97;;
60588;SDS011;46421;48.610;9.334;2023-06-04T13:35:56;5.88;;;3.25;;
60588;SDS011;46421;48.610;9.334;2023-06-04T13:38:21;5.43;;;3.00;;
60588;SDS011;46421;48.610;9.334;2023-06-04T13:43:11;5.55;;;2.95;;
60588;SDS011;46421;48.610;9.334;2023-06-04T13:48:02;4.95;;;3.17;;
60588;SDS011;46421;48.610;9.334;2023-06-04T13:50:33;4.88;;;3.08;;
60588;SDS011;46421;48.610;9.334;2023-06-04T13:52:59;7.07;;;3.38;;
60588;SDS011;46421;48.610;9.334;2023-06-04T13:57:50;5.50;;;2.77;;
60588;SDS011;46421;48.610;9.334;2023-06-04T14:07:31;4.30;;;2.30;;
60588;SDS011;46421;48.610;9.334;2023-06-04T14:09:56;5.80;;;2.73;;
60588;SDS011;46421;48.610;9.334;2023-06-04T14:12:22;6.60;;;2.60;;
60588;SDS011;46421;48.610;9.334;2023-06-04T14:14:47;4.18;;;2.10;;
60588;SDS011;46421;48.610;9.334;2023-06-04T14:17:12;5.03;;;2.80;;
60588;SDS011;46421;48.610;9.334;2023-06-04T14:19:38;5.40;;;2.50;;
60588;SDS011;46421;48.610;9.334;2023-06-04T14:22:03;4.82;;;2.70;;
60588;SDS011;46421;48.610;9.334;2023-06-04T14:24:29;5.77;;;3.03;;
60588;SDS011;46421;48.610;9.334;2023-06-04T14:26:55;5.68;;;2.65;;
60588;SDS011;46421;48.610;9.334;2023-06-04T14:29:20;5.33;;;2.53;;
60588;SDS011;46421;48.610;9.334;2023-06-04T14:34:11;4.67;;;2.27;;
60588;SDS011;46421;48.610;9.334;2023-06-04T14:36:36;5.85;;;3.20;;
60588;SDS011;46421;48.610;9.334;2023-06-04T14:41:27;5.65;;;2.67;;
60588;SDS011;46421;48.610;9.334;2023-06-04T14:43:52;5.00;;;2.40;;
60588;SDS011;46421;48.610;9.334;2023-06-04T14:46:17;5.47;;;2.22;;
60588;SDS011;46421;48.610;9.334;2023-06-04T14:48:43;5.30;;;2.80;;
60588;SDS011;46421;48.610;9.334;2023-06-04T14:51:08;6.78;;;2.17;;
60588;SDS011;46421;48.610;9.334;2023-06-04T14:53:33;4.65;;;2.45;;
60588;SDS011;46421;48.610;9.334;2023-06-04T14:55:59;5.93;;;2.97;;
60588;SDS011;46421;48.610;9.334;2023-06-04T14:58:24;5.20;;;2.28;;
60588;SDS011;46421;48.610;9.334;2023-06-04T15:00:49;4.23;;;2.40;;
60588;SDS011;46421;48.610;9.334;2023-06-04T15:03:15;5.20;;;2.60;;
60588;SDS011;46421;48.610;9.334;2023-06-04T15:05:40;5.13;;;2.57;;
60588;SDS011;46421;48.610;9.334;2023-06-04T15:08:05;4.87;;;2.37;;
60588;SDS011;46421;48.610;9.334;2023-06-04T15:10:30;5.63;;;2.47;;
60588;SDS011;46421;48.610;9.334;2023-06-04T15:12:56;4.68;;;2.08;;
60588;SDS011;46421;48.610;9.334;2023-06-04T15:15:21;5.80;;;2.30;;
60588;SDS011;46421;48.610;9.334;2023-06-04T15:17:47;6.85;;;2.33;;
60588;SDS011;46421;48.610;9.334;2023-06-04T15:20:12;5.22;;;2.72;;
60588;SDS011;46421;48.610;9.334;2023-06-04T15:22:38;4.60;;;2.20;;
60588;SDS011;46421;48.610;9.334;2023-06-04T15:25:03;4.80;;;2.10;;
60588;SDS011;46421;48.610;9.334;2023-06-04T15:27:28;4.40;;;2.30;;
60588;SDS011;46421;48.610;9.334;2023-06-04T15:29:53;5.83;;;2.10;;
60588;SDS011;46421;48.610;9.334;2023-06-04T15:32:19;4.75;;;2.05;;
60588;SDS011;46421;48.610;9.334;2023-06-04T15:34:44;4.30;;;1.88;;
60588;SDS011;46421;48.610;9.334;2023-06-04T15:37:10;6.60;;;2.22;;
60588;SDS011;46421;48.610;9.334;2023-06-04T15:39:35;3.77;;;2.00;;
60588;SDS011;46421;48.610;9.334;2023-06-04T15:42:00;5.07;;;2.00;;
60588;SDS011;46421;48.610;9.334;2023-06-04T15:44:26;5.83;;;1.90;;
60588;SDS011;46421;48.610;9.334;2023-06-04T15:49:17;4.63;;;2.20;;
60588;SDS011;46421;48.610;9.334;2023-06-04T15:51:43;4.38;;;2.13;;
60588;SDS011;46421;48.610;9.334;2023-06-04T15:54:08;5.03;;;2.30;;
60588;SDS011;46421;48.610;9.334;2023-06-04T15:56:34;5.88;;;1.90;;
60588;SDS011;46421;48.610;9.334;2023-06-04T15:58:59;6.65;;;1.90;;
60588;SDS011;46421;48.610;9.334;2023-06-04T16:01:24;4.93;;;1.90;;
60588;SDS011;46421;48.610;9.334;2023-06-04T16:03:50;4.30;;;1.93;;
60588;SDS011;46421;48.610;9.334;2023-06-04T16:06:17;4.82;;;2.10;;
60588;SDS011;46421;48.610;9.334;2023-06-04T16:08:42;5.85;;;2.17;;
60588;SDS011;46421;48.610;9.334;2023-06-04T16:11:07;4.57;;;2.10;;
60588;SDS011;46421;48.610;9.334;2023-06-04T16:13:33;5.13;;;2.03;;
60588;SDS011;46421;48.610;9.334;2023-06-04T16:15:58;5.37;;;2.50;;
60588;SDS011;46421;48.610;9.334;2023-06-04T16:18:25;5.07;;;2.28;;
60588;SDS011;46421;48.610;9.334;2023-06-04T16:20:51;4.70;;;2.40;;
60588;SDS011;46421;48.610;9.334;2023-06-04T16:23:16;5.17;;;2.40;;
60588;SDS011;46421;48.610;9.334;2023-06-04T16:25:41;7.80;;;2.50;;
60588;SDS011;46421;48.610;9.334;2023-06-04T16:28:06;6.17;;;2.33;;
60588;SDS011;46421;48.610;9.334;2023-06-04T16:30:31;5.40;;;2.37;;
60588;SDS011;46421;48.610;9.334;2023-06-04T16:32:57;6.27;;;2.50;;
60588;SDS011;46421;48.610;9.334;2023-06-04T16:35:22;4.77;;;2.57;;